Time;durP1;ratioP1;P1;durP2;ratioP2;P2;SDS_P1;SDS_P2;PMS_P1;PMS_P2;Temp;Humidity;BMP_temperature;BMP_pressure;BME280_temperature;BME280_humidity;BME280_pressure;Samples;Min_cycle;Max_cycle;Signal;HPM_P1;HPM_P2
2021/10/23 00:01:35;;;;;;;8.95;5.55;;;;;;;10.01;94.81;100224.06;5054218;28;20307;-73
2021/10/23 00:04:01;;;;;;;5.68;4.45;;;;;;;10.09;93.57;100226.41;5054191;28;20204;-74
2021/10/23 00:06:28;;;;;;;12.77;5.00;;;;;;;9.96;94.04;100220.72;5054191;28;20188;-73
2021/10/23 00:08:55;;;;;;;6.57;4.70;;;;;;;9.78;95.15;100225.97;5054122;28;20226;-74
2021/10/23 00:11:22;;;;;;;9.60;4.85;;;;;;;9.90;95.43;100229.91;5054192;28;20193;-74
2021/10/23 00:13:48;;;;;;;9.02;4.60;;;;;;;9.86;94.95;100243.59;5053882;28;20210;-74
2021/10/23 00:16:17;;;;;;;6.80;4.32;;;;;;;9.96;94.63;100237.72;5053899;28;20282;-74
2021/10/23 00:18:44;;;;;;;7.85;4.90;;;;;;;9.95;94.79;100238.69;5053746;28;20192;-74
2021/10/23 00:21:10;;;;;;;9.38;4.55;;;;;;;9.94;95.02;100244.13;5053511;28;20316;-74
2021/10/23 00:23:37;;;;;;;11.73;5.30;;;;;;;9.86;95.25;100239.09;5053671;28;20548;-74
2021/10/23 00:26:03;;;;;;;13.52;7.13;;;;;;;9.85;95.21;100240.03;5053907;28;20292;-74
2021/10/23 00:28:30;;;;;;;13.88;5.82;;;;;;;9.97;93.77;100242.19;5053260;28;20189;-74
2021/10/23 00:30:57;;;;;;;7.40;4.88;;;;;;;9.97;94.12;100239.50;5053790;28;20582;-73
2021/10/23 00:33:25;;;;;;;9.30;6.15;;;;;;;10.04;93.61;100242.78;5053665;28;20547;-74
2021/10/23 00:35:51;;;;;;;9.10;5.28;;;;;;;10.08;93.69;100240.81;5053611;28;20228;-72
2021/10/23 00:38:18;;;;;;;11.43;5.40;;;;;;;10.16;92.96;100247.59;5053281;28;20204;-73
2021/10/23 00:40:45;;;;;;;8.82;5.70;;;;;;;10.26;93.01;100233.69;5052923;28;20224;-73
2021/10/23 00:43:11;;;;;;;7.50;5.70;;;;;;;10.25;92.25;100245.44;5053502;28;20181;-73
2021/10/23 00:45:38;;;;;;;9.10;5.57;;;;;;;10.18;92.94;100244.84;5053236;28;20202;-73
2021/10/23 00:48:05;;;;;;;7.78;4.25;;;;;;;10.26;92.64;100252.53;5053345;28;20300;-73
2021/10/23 00:50:33;;;;;;;6.10;4.72;;;;;;;10.33;91.54;100244.13;5053390;28;20212;-73
2021/10/23 00:53:00;;;;;;;11.15;7.30;;;;;;;10.50;89.82;100251.41;5053312;28;20212;-73
2021/10/23 00:55:27;;;;;;;8.32;5.40;;;;;;;10.50;89.22;100250.56;5053002;28;20208;-73
2021/10/23 00:57:54;;;;;;;13.50;7.38;;;;;;;10.48;89.13;100242.53;5053267;28;20190;-74
2021/10/23 01:00:21;;;;;;;14.85;7.40;;;;;;;10.33;89.98;100243.25;5053186;28;20213;-73
2021/10/23 01:02:47;;;;;;;15.82;8.10;;;;;;;9.96;92.32;100251.19;5053106;28;20185;-74
2021/10/23 01:05:14;;;;;;;15.05;6.07;;;;;;;10.12;92.47;100255.88;5052759;28;20610;-73
2021/10/23 01:07:44;;;;;;;12.20;7.68;;;;;;;9.77;95.21;100253.81;5052734;28;20207;-73
2021/10/23 01:10:12;;;;;;;10.52;5.25;;;;;;;10.03;93.50;100254.47;5052655;28;20284;-74
2021/10/23 01:12:41;;;;;;;10.10;5.40;;;;;;;9.92;93.96;100263.00;5052900;28;20533;-73
2021/10/23 01:15:20;;;;;;;12.23;5.35;;;;;;;10.02;94.38;100263.50;5052531;28;20209;-73
2021/10/23 01:17:46;;;;;;;7.82;5.57;;;;;;;10.04;94.22;100264.31;5053257;28;20551;-73
2021/10/23 01:20:15;;;;;;;478.63;249.98;;;;;;;10.07;96.00;100261.47;5053101;28;20360;-73
2021/10/23 01:22:41;;;;;;;20.58;9.77;;;;;;;9.97;94.84;100261.00;5052588;28;20307;-73
2021/10/23 01:25:11;;;;;;;9.70;5.72;;;;;;;10.14;94.23;100268.31;5052914;28;20632;-73
2021/10/23 01:27:38;;;;;;;8.25;4.40;;;;;;;10.14;94.12;100273.69;5052711;28;20281;-74
2021/10/23 01:30:05;;;;;;;10.45;5.22;;;;;;;10.08;93.43;100273.09;5052159;28;20235;-74
2021/10/23 01:32:32;;;;;;;9.75;4.85;;;;;;;10.08;93.80;100273.97;5052340;28;20260;-73
2021/10/23 01:34:59;;;;;;;9.73;5.22;;;;;;;9.93;94.40;100274.66;5052293;28;20305;-74
2021/10/23 01:37:36;;;;;;;7.57;5.43;;;;;;;9.90;94.14;100274.78;5052580;28;20199;-74
2021/10/23 01:40:04;;;;;;;7.68;5.95;;;;;;;9.88;94.46;100276.66;5052492;28;20191;-74
2021/10/23 01:42:30;;;;;;;11.48;5.07;;;;;;;9.89;94.15;100275.75;5052347;28;20671;-74
2021/10/23 01:44:57;;;;;;;9.30;5.10;;;;;;;9.88;94.23;100282.06;5052384;28;20188;-74
2021/10/23 01:47:24;;;;;;;6.18;4.70;;;;;;;9.78;94.99;100286.97;5052062;28;20210;-74
2021/10/23 01:49:50;;;;;;;10.65;5.00;;;;;;;9.84;95.13;100291.22;5052038;28;20279;-73
2021/10/23 01:52:17;;;;;;;8.35;5.55;;;;;;;9.86;94.62;100287.53;5051541;28;20223;-75
2021/10/23 01:54:45;;;;;;;13.88;6.15;;;;;;;9.77;95.28;100290.63;5051964;28;20196;-73
2021/10/23 01:57:11;;;;;;;9.43;5.65;;;;;;;9.73;95.69;100292.56;5052165;28;20185;-74
2021/10/23 01:59:38;;;;;;;6.93;5.60;;;;;;;9.77;95.37;100283.41;5051890;28;20193;-74
2021/10/23 02:02:05;;;;;;;13.43;6.50;;;;;;;9.74;95.89;100285.34;5052023;28;20316;-73
2021/10/23 02:04:31;;;;;;;13.82;5.03;;;;;;;9.82;95.29;100283.22;5051722;28;20189;-73
2021/10/23 02:06:58;;;;;;;29.15;15.15;;;;;;;9.85;95.03;100287.56;5051806;28;20189;-72
2021/10/23 02:09:25;;;;;;;16.65;8.60;;;;;;;9.96;94.19;100290.66;5051740;28;20296;-73
2021/10/23 02:11:53;;;;;;;42.97;21.17;;;;;;;10.01;94.41;100280.56;5051594;28;20276;-73
2021/10/23 02:14:19;;;;;;;77.57;38.67;;;;;;;9.93;94.55;100289.00;5051721;28;20196;-74
2021/10/23 02:16:46;;;;;;;52.13;28.38;;;;;;;9.89;95.43;100290.06;5051769;28;20201;-73
2021/10/23 02:19:13;;;;;;;82.65;41.70;;;;;;;10.05;94.72;100292.94;5051472;28;20188;-74
2021/10/23 02:21:40;;;;;;;84.55;42.10;;;;;;;9.94;95.50;100290.72;5051467;28;20231;-74
2021/10/23 02:24:06;;;;;;;40.75;21.35;;;;;;;9.90;95.22;100293.63;5051576;28;20196;-74
2021/10/23 02:26:33;;;;;;;27.90;15.55;;;;;;;9.74;96.02;100294.28;5051307;28;20235;-74
2021/10/23 02:29:01;;;;;;;26.08;13.10;;;;;;;9.74;96.68;100301.50;5051478;28;20319;-73
2021/10/23 02:31:28;;;;;;;36.35;17.75;;;;;;;9.49;98.34;100296.28;5051434;28;20195;-74
2021/10/23 02:33:54;;;;;;;37.17;20.85;;;;;;;9.73;98.87;100307.81;5051592;28;20646;-74
2021/10/23 02:36:21;;;;;;;61.92;33.17;;;;;;;9.82;98.99;100302.03;5051302;28;20276;-74
2021/10/23 02:38:49;;;;;;;67.57;33.30;;;;;;;9.82;98.40;100293.97;5051529;28;20276;-73
2021/10/23 02:41:17;;;;;;;68.97;34.08;;;;;;;9.93;97.85;100304.25;5051444;28;20285;-74
2021/10/23 02:43:43;;;;;;;61.38;32.38;;;;;;;9.94;97.48;100306.88;5051565;28;20658;-74
2021/10/23 02:46:11;;;;;;;43.90;22.10;;;;;;;9.89;97.64;100303.50;5051490;28;20215;-73
2021/10/23 02:48:38;;;;;;;25.40;14.82;;;;;;;9.93;97.16;100296.19;5051493;28;20705;-73
2021/10/23 02:51:05;;;;;;;28.17;14.95;;;;;;;9.87;97.07;100293.75;5051401;28;20211;-74
2021/10/23 02:53:31;;;;;;;18.33;9.73;;;;;;;9.53;99.03;100295.22;5051151;28;20204;-74
2021/10/23 02:55:58;;;;;;;9.13;5.90;;;;;;;9.84;98.57;100286.72;5051480;28;20191;-74
2021/10/23 02:58:25;;;;;;;9.55;6.55;;;;;;;9.82;97.96;100284.06;5051069;28;20192;-73
2021/10/23 03:00:51;;;;;;;10.32;5.93;;;;;;;9.81;98.38;100285.03;5051026;28;20210;-73
2021/10/23 03:03:20;;;;;;;310.13;148.48;;;;;;;9.96;100.00;100287.97;5052771;28;20208;-73
2021/10/23 03:05:47;;;;;;;430.38;214.27;;;;;;;10.27;100.00;100287.47;5055392;28;20627;-73
2021/10/23 03:08:14;;;;;;;155.55;71.82;;;;;;;10.37;100.00;100290.63;5055247;28;20201;-73
2021/10/23 03:10:40;;;;;;;308.38;148.95;;;;;;;10.28;100.00;100282.94;5055324;28;20193;-73
2021/10/23 03:13:07;;;;;;;230.18;109.53;;;;;;;10.15;100.00;100283.53;5055281;28;20287;-73
2021/10/23 03:15:34;;;;;;;22.95;13.30;;;;;;;10.22;98.83;100287.69;5055209;28;20227;-73
2021/10/23 03:18:00;;;;;;;46.17;25.88;;;;;;;9.90;98.81;100294.50;5055045;28;20654;-74
2021/10/23 03:20:28;;;;;;;29.83;16.52;;;;;;;10.05;99.80;100286.69;5054842;28;20209;-74
2021/10/23 03:22:55;;;;;;;8.15;6.97;;;;;;;9.88;97.32;100293.72;5054915;28;20231;-74
2021/10/23 03:25:22;;;;;;;11.77;6.10;;;;;;;9.79;98.33;100288.72;5054742;28;20195;-73
2021/10/23 03:27:48;;;;;;;7.35;5.55;;;;;;;9.70;98.14;100291.78;5054968;28;20566;-73
2021/10/23 03:30:15;;;;;;;7.93;5.15;;;;;;;9.52;100.00;100289.00;5054520;28;20243;-73
2021/10/23 03:32:41;;;;;;;9.30;6.25;;;;;;;9.54;100.00;100291.59;5054875;28;20538;-73
2021/10/23 03:35:09;;;;;;;6.97;6.05;;;;;;;9.44;100.00;100292.94;5054596;28;20196;-73
2021/10/23 03:37:37;;;;;;;7.60;6.15;;;;;;;9.66;100.00;100284.84;5054769;28;20294;-74
2021/10/23 03:40:07;;;;;;;9.82;6.57;;;;;;;9.62;100.00;100292.16;5054732;28;20211;-74
2021/10/23 03:42:33;;;;;;;8.80;6.60;;;;;;;9.55;100.00;100291.53;5054545;28;20559;-74
2021/10/23 03:45:00;;;;;;;7.88;5.97;;;;;;;9.52;100.00;100299.75;5054372;28;20196;-73
2021/10/23 03:47:26;;;;;;;9.02;6.13;;;;;;;9.54;100.00;100292.50;5054737;28;20193;-74
2021/10/23 03:49:53;;;;;;;9.63;6.75;;;;;;;9.36;100.00;100286.06;5054536;28;20204;-73
2021/10/23 03:52:19;;;;;;;11.18;6.20;;;;;;;9.37;100.00;100293.19;5054529;28;20268;-73
2021/10/23 03:54:47;;;;;;;13.52;6.70;;;;;;;9.49;100.00;100289.09;5054542;28;20649;-72
2021/10/23 03:57:14;;;;;;;11.60;7.40;;;;;;;9.54;100.00;100294.28;5054432;28;20294;-75
2021/10/23 03:59:41;;;;;;;9.50;6.32;;;;;;;9.39;100.00;100285.94;5054377;28;20655;-74
2021/10/23 04:02:07;;;;;;;10.77;6.40;;;;;;;9.40;100.00;100284.97;5054256;28;20231;-71
2021/10/23 04:04:34;;;;;;;7.65;6.00;;;;;;;9.47;100.00;100282.91;5054063;28;20288;-72
2021/10/23 04:07:01;;;;;;;10.93;5.88;;;;;;;9.39;100.00;100283.25;5053949;28;20200;-73
2021/10/23 04:09:27;;;;;;;7.80;6.32;;;;;;;9.35;100.00;100287.00;5054000;28;20276;-72
2021/10/23 04:11:55;;;;;;;14.35;6.30;;;;;;;9.33;100.00;100282.63;5053922;28;20199;-73
2021/10/23 04:14:22;;;;;;;9.82;6.13;;;;;;;9.36;100.00;100278.00;5053210;28;20204;-73
2021/10/23 04:16:49;;;;;;;8.90;5.90;;;;;;;9.36;100.00;100280.69;5053903;28;20229;-73
2021/10/23 04:19:16;;;;;;;10.30;6.45;;;;;;;9.28;100.00;100280.13;5053707;28;20676;-73
2021/10/23 04:21:42;;;;;;;9.88;5.95;;;;;;;9.06;100.00;100274.78;5053886;28;20185;-74
2021/10/23 04:24:09;;;;;;;9.00;5.90;;;;;;;9.06;100.00;100287.34;5053972;28;20523;-73
2021/10/23 04:26:37;;;;;;;11.63;6.05;;;;;;;8.97;100.00;100277.84;5053552;28;20261;-73
2021/10/23 04:29:05;;;;;;;8.05;6.13;;;;;;;8.85;100.00;100279.22;5053414;28;20231;-73
2021/10/23 04:31:32;;;;;;;10.55;6.95;;;;;;;8.81;100.00;100284.78;5053798;28;20186;-73
2021/10/23 04:33:59;;;;;;;14.82;5.72;;;;;;;8.62;100.00;100295.38;5053432;28;20211;-73
2021/10/23 04:36:26;;;;;;;14.45;8.07;;;;;;;8.56;100.00;100285.72;5053720;28;20191;-73
2021/10/23 04:38:52;;;;;;;12.95;7.82;;;;;;;8.61;100.00;100288.25;5053681;28;20190;-73
2021/10/23 04:41:19;;;;;;;12.18;7.90;;;;;;;8.60;100.00;100292.75;5053619;28;20229;-73
2021/10/23 04:43:46;;;;;;;12.07;7.85;;;;;;;8.44;100.00;100297.81;5053186;28;20216;-73
2021/10/23 04:46:14;;;;;;;9.60;6.90;;;;;;;8.21;100.00;100295.06;5053525;28;20675;-73
2021/10/23 04:48:40;;;;;;;9.90;6.25;;;;;;;8.30;100.00;100295.63;5053240;28;20383;-72
2021/10/23 04:51:07;;;;;;;10.50;6.45;;;;;;;8.27;100.00;100294.88;5053434;28;20551;-73
2021/10/23 04:53:33;;;;;;;11.20;7.65;;;;;;;8.15;100.00;100294.38;5053412;28;20197;-73
2021/10/23 04:56:00;;;;;;;8.48;7.05;;;;;;;8.38;100.00;100299.84;5053268;28;20720;-73
2021/10/23 04:58:27;;;;;;;9.85;6.50;;;;;;;8.38;100.00;100295.31;5053277;28;20194;-73
2021/10/23 05:00:56;;;;;;;11.98;6.75;;;;;;;8.37;100.00;100296.28;5052993;28;20278;-73
2021/10/23 05:03:24;;;;;;;12.32;7.07;;;;;;;8.33;100.00;100300.00;5052911;28;20225;-73
2021/10/23 05:05:50;;;;;;;9.75;7.82;;;;;;;8.40;100.00;100308.69;5052877;28;20624;-73
2021/10/23 05:08:17;;;;;;;10.05;6.78;;;;;;;8.31;100.00;100309.91;5052754;28;20292;-73
2021/10/23 05:10:44;;;;;;;12.85;8.15;;;;;;;8.17;100.00;100312.25;5053059;28;20282;-73
2021/10/23 05:13:10;;;;;;;9.32;7.68;;;;;;;8.17;100.00;100317.63;5053060;28;20696;-73
2021/10/23 05:15:37;;;;;;;13.82;7.70;;;;;;;8.23;100.00;100315.59;5052901;28;20193;-73
2021/10/23 05:18:04;;;;;;;9.43;7.30;;;;;;;8.18;100.00;100325.59;5052820;28;20208;-74
2021/10/23 05:20:32;;;;;;;9.93;7.80;;;;;;;8.03;100.00;100331.53;5052502;28;20281;-73
2021/10/23 05:22:58;;;;;;;11.90;8.20;;;;;;;8.02;100.00;100335.13;5052613;28;20668;-73
2021/10/23 05:25:25;;;;;;;15.30;8.23;;;;;;;8.07;100.00;100336.72;5052398;28;20209;-73
2021/10/23 05:27:52;;;;;;;12.55;7.63;;;;;;;8.06;100.00;100336.78;5052747;28;20293;-73
2021/10/23 05:30:19;;;;;;;13.40;8.70;;;;;;;7.96;100.00;100338.91;5052203;28;20229;-74
2021/10/23 05:32:45;;;;;;;10.77;7.35;;;;;;;7.97;100.00;100340.66;5052474;28;20615;-74
2021/10/23 05:35:12;;;;;;;9.32;7.40;;;;;;;7.82;100.00;100343.88;5052593;28;20536;-73
2021/10/23 05:37:40;;;;;;;10.43;7.93;;;;;;;7.81;100.00;100342.13;5052540;28;20185;-73
2021/10/23 05:40:08;;;;;;;12.18;8.98;;;;;;;7.93;100.00;100350.59;5052292;28;20197;-74
2021/10/23 05:42:34;;;;;;;10.70;8.23;;;;;;;7.98;100.00;100357.63;5052389;28;20209;-73
2021/10/23 05:45:01;;;;;;;10.65;7.60;;;;;;;7.89;100.00;100354.34;5052375;28;20213;-72
2021/10/23 05:47:28;;;;;;;8.77;7.22;;;;;;;7.89;100.00;100359.72;5051946;28;20236;-75
2021/10/23 05:49:54;;;;;;;9.10;7.32;;;;;;;7.56;100.00;100367.09;5051848;28;20185;-73
2021/10/23 05:52:21;;;;;;;12.07;7.47;;;;;;;7.42;100.00;100374.72;5052268;28;20273;-72
2021/10/23 05:54:49;;;;;;;13.23;7.82;;;;;;;7.22;100.00;100383.41;5052052;28;20289;-74
2021/10/23 05:57:15;;;;;;;11.18;7.35;;;;;;;7.20;100.00;100380.75;5052140;28;20539;-73
2021/10/23 05:59:44;;;;;;;17.65;7.55;;;;;;;7.24;100.00;100379.75;5052038;28;20224;-73
2021/10/23 06:02:22;;;;;;;10.43;6.38;;;;;;;7.29;100.00;100380.47;5051921;28;20541;-72
2021/10/23 06:04:49;;;;;;;11.15;7.90;;;;;;;7.17;100.00;100374.63;5051982;28;20185;-73
2021/10/23 06:07:15;;;;;;;8.20;6.78;;;;;;;7.10;100.00;100377.50;5051891;28;20244;-75
2021/10/23 06:09:42;;;;;;;10.93;7.50;;;;;;;7.14;100.00;100386.31;5051523;28;20208;-72
2021/10/23 06:12:10;;;;;;;10.20;6.90;;;;;;;7.09;100.00;100383.78;5051585;28;20186;-72
2021/10/23 06:14:37;;;;;;;11.95;8.15;;;;;;;6.96;100.00;100392.22;5051812;28;20626;-72
2021/10/23 06:17:05;;;;;;;11.77;8.10;;;;;;;6.98;100.00;100395.75;5051687;28;20228;-73
2021/10/23 06:19:31;;;;;;;11.13;7.55;;;;;;;7.15;100.00;100385.41;5051529;28;20192;-74
2021/10/23 06:21:58;;;;;;;11.15;7.95;;;;;;;7.30;100.00;100390.28;5051451;28;20198;-73
2021/10/23 06:24:25;;;;;;;9.82;7.32;;;;;;;7.25;100.00;100384.16;5051607;28;20296;-73
2021/10/23 06:26:52;;;;;;;14.85;9.60;;;;;;;7.14;100.00;100375.59;5051559;28;20189;-73
2021/10/23 06:29:20;;;;;;;10.57;8.93;;;;;;;7.28;100.00;100384.09;5051227;28;20243;-73
2021/10/23 06:31:47;;;;;;;11.15;8.20;;;;;;;7.39;100.00;100380.16;5051588;28;20620;-73
2021/10/23 06:34:13;;;;;;;18.90;8.15;;;;;;;7.37;100.00;100372.19;5051116;28;20212;-74
2021/10/23 06:36:40;;;;;;;13.52;7.78;;;;;;;7.39;100.00;100380.16;5051517;28;20551;-74
2021/10/23 06:39:06;;;;;;;10.90;7.22;;;;;;;7.48;100.00;100377.19;5050719;28;20281;-74
2021/10/23 06:41:35;;;;;;;8.45;7.07;;;;;;;7.40;100.00;100380.13;5051471;28;20272;-75
2021/10/23 06:44:02;;;;;;;8.77;6.57;;;;;;;7.51;100.00;100380.66;5051359;28;20362;-72
2021/10/23 06:46:30;;;;;;;9.82;7.32;;;;;;;7.42;100.00;100377.41;5051506;28;20555;-75
2021/10/23 06:48:56;;;;;;;15.15;8.23;;;;;;;7.23;100.00;100377.09;5051406;28;20213;-73
2021/10/23 06:51:23;;;;;;;10.32;7.57;;;;;;;7.23;100.00;100380.66;5051222;28;20203;-73
2021/10/23 06:53:52;;;;;;;14.50;7.38;;;;;;;7.15;100.00;100385.41;5051252;28;20707;-73
2021/10/23 06:56:19;;;;;;;10.25;7.90;;;;;;;6.91;100.00;100388.84;5051062;28;20190;-72
2021/10/23 06:58:45;;;;;;;10.70;7.60;;;;;;;6.90;100.00;100398.66;5051007;28;20205;-72
2021/10/23 07:01:12;;;;;;;10.73;9.35;;;;;;;6.95;100.00;100402.06;5051228;28;20619;-73
2021/10/23 07:03:40;;;;;;;11.90;8.65;;;;;;;7.11;100.00;100405.16;5051062;28;20224;-73
2021/10/23 07:06:07;;;;;;;9.70;7.85;;;;;;;7.20;100.00;100402.19;5051138;28;20607;-73
2021/10/23 07:08:33;;;;;;;10.60;8.00;;;;;;;7.40;100.00;100408.72;5050920;28;20194;-73
2021/10/23 07:11:00;;;;;;;10.50;8.18;;;;;;;7.44;100.00;100405.91;5050830;28;20715;-74
2021/10/23 07:13:27;;;;;;;13.23;8.10;;;;;;;7.63;100.00;100416.88;5050829;28;20317;-73
2021/10/23 07:15:54;;;;;;;18.00;9.25;;;;;;;7.73;100.00;100418.34;5050847;28;20197;-73
2021/10/23 07:18:22;;;;;;;10.30;8.20;;;;;;;7.73;100.00;100422.81;5051127;28;20197;-73
2021/10/23 07:20:50;;;;;;;11.50;8.68;;;;;;;7.85;100.00;100426.91;5050801;28;20276;-73
2021/10/23 07:23:16;;;;;;;16.25;8.98;;;;;;;7.79;100.00;100424.44;5050816;28;20317;-73
2021/10/23 07:25:44;;;;;;;11.90;8.55;;;;;;;7.73;100.00;100429.06;5050637;28;20288;-72
2021/10/23 07:28:11;;;;;;;13.02;8.57;;;;;;;8.00;100.00;100441.59;5050682;28;20243;-72
2021/10/23 07:30:37;;;;;;;11.15;9.55;;;;;;;7.94;100.00;100443.56;5050486;28;20233;-72
2021/10/23 07:33:04;;;;;;;11.65;8.00;;;;;;;7.97;100.00;100447.94;5050518;28;20197;-73
2021/10/23 07:35:31;;;;;;;9.65;8.27;;;;;;;7.99;100.00;100456.81;5050891;28;20539;-73
2021/10/23 07:37:59;;;;;;;13.63;8.48;;;;;;;8.15;100.00;100441.94;5050762;28;20208;-72
2021/10/23 07:40:25;;;;;;;10.88;8.60;;;;;;;8.27;100.00;100450.47;5050364;28;20182;-72
2021/10/23 07:42:52;;;;;;;12.70;8.38;;;;;;;8.20;100.00;100446.25;5050564;28;20624;-72
2021/10/23 07:45:19;;;;;;;11.57;9.30;;;;;;;8.27;100.00;100456.72;5050756;28;20269;-73
2021/10/23 07:47:45;;;;;;;15.88;10.25;;;;;;;8.23;100.00;100455.09;5050393;28;20263;-73
2021/10/23 07:50:12;;;;;;;12.45;8.95;;;;;;;8.48;100.00;100449.78;5052254;28;20198;-73
2021/10/23 07:52:40;;;;;;;12.88;8.55;;;;;;;8.71;100.00;100448.94;5054476;28;20194;-73
2021/10/23 07:55:09;;;;;;;22.25;14.52;;;;;;;8.71;100.00;100461.47;5054159;28;20271;-73
2021/10/23 07:57:36;;;;;;;13.45;10.82;;;;;;;8.91;100.00;100467.00;5053829;28;20203;-74
2021/10/23 08:00:04;;;;;;;12.82;9.68;;;;;;;9.39;97.20;100471.41;5053915;28;20194;-73
2021/10/23 08:02:31;;;;;;;17.42;8.80;;;;;;;9.57;94.79;100475.19;5054102;28;20189;-73
2021/10/23 08:04:58;;;;;;;12.85;9.30;;;;;;;9.57;95.46;100474.31;5053829;28;20223;-73
2021/10/23 08:07:24;;;;;;;9.20;8.23;;;;;;;9.89;92.83;100477.50;5053758;28;20192;-73
2021/10/23 08:09:51;;;;;;;477.05;263.92;;;;;;;9.84;95.53;100487.59;5054139;28;20587;-73
2021/10/23 08:12:19;;;;;;;18.23;13.00;;;;;;;10.39;90.03;100485.28;5053472;28;20265;-73
2021/10/23 08:14:45;;;;;;;16.63;12.07;;;;;;;10.62;88.17;100489.66;5053767;28;20224;-73
2021/10/23 08:17:12;;;;;;;20.75;16.55;;;;;;;10.79;87.99;100484.41;5053576;28;20205;-73
2021/10/23 08:19:39;;;;;;;20.92;12.80;;;;;;;11.13;85.43;100492.78;5053614;28;20281;-73
2021/10/23 08:22:06;;;;;;;14.68;8.35;;;;;;;11.28;83.89;100492.03;5053791;28;20215;-73
2021/10/23 08:24:33;;;;;;;11.18;9.00;;;;;;;11.52;83.07;100498.09;5053418;28;20278;-73
2021/10/23 08:26:59;;;;;;;12.88;7.78;;;;;;;11.66;81.23;100494.75;5053681;28;20185;-73
2021/10/23 08:29:27;;;;;;;8.43;6.95;;;;;;;11.95;79.96;100495.19;5053213;28;20233;-73
2021/10/23 08:31:54;;;;;;;11.05;7.75;;;;;;;11.73;79.68;100501.56;5053651;28;20185;-73
2021/10/23 08:34:20;;;;;;;11.00;6.95;;;;;;;11.72;79.61;100507.06;5053443;28;20192;-73
2021/10/23 08:36:47;;;;;;;9.80;8.27;;;;;;;11.88;79.71;100506.25;5053209;28;20190;-73
2021/10/23 08:39:15;;;;;;;12.15;8.65;;;;;;;11.98;79.15;100508.50;5052927;28;20201;-73
2021/10/23 08:41:43;;;;;;;9.98;7.75;;;;;;;12.25;77.52;100509.81;5053477;28;20243;-73
2021/10/23 08:44:13;;;;;;;10.63;7.38;;;;;;;12.29;78.00;100510.56;5053114;28;20304;-73
2021/10/23 08:46:44;;;;;;;12.48;7.82;;;;;;;12.40;77.46;100515.41;5052941;28;20364;-72
2021/10/23 08:49:10;;;;;;;11.68;7.32;;;;;;;12.45;76.72;100508.81;5053330;28;20190;-74
2021/10/23 08:51:37;;;;;;;10.82;7.82;;;;;;;12.45;76.30;100513.34;5052889;28;20208;-74
2021/10/23 08:54:04;;;;;;;10.93;8.63;;;;;;;12.58;75.87;100514.47;5052899;28;20205;-73
2021/10/23 08:56:31;;;;;;;13.80;7.30;;;;;;;12.67;74.68;100515.81;5052922;28;20272;-72
2021/10/23 08:58:57;;;;;;;11.02;7.13;;;;;;;12.81;74.54;100515.09;5053017;28;20191;-73
2021/10/23 09:01:24;;;;;;;10.35;6.72;;;;;;;12.76;74.62;100511.75;5052640;28;20203;-73
2021/10/23 09:03:53;;;;;;;8.35;7.45;;;;;;;12.65;75.24;100517.72;5052675;28;20213;-73
2021/10/23 09:06:30;;;;;;;10.82;7.07;;;;;;;12.72;74.57;100522.72;5052967;28;20186;-74
2021/10/23 09:09:05;;;;;;;10.10;7.10;;;;;;;12.80;74.32;100516.03;5052420;28;20193;-74
2021/10/23 09:11:34;;;;;;;9.20;6.80;;;;;;;12.89;73.67;100523.69;5052683;28;20633;-73
2021/10/23 09:14:21;;;;;;;8.45;6.93;;;;;;;12.86;73.69;100519.28;5052861;28;20185;-73
2021/10/23 09:16:48;;;;;;;24.52;19.08;;;;;;;12.53;74.63;100519.25;5052769;28;20551;-73
2021/10/23 09:19:16;;;;;;;12.07;7.55;;;;;;;12.49;75.21;100515.81;5052580;28;20280;-74
2021/10/23 09:21:43;;;;;;;13.35;8.40;;;;;;;12.49;75.37;100513.09;5052352;28;20599;-74
2021/10/23 09:24:21;;;;;;;13.23;7.38;;;;;;;12.09;76.21;100515.13;5052417;28;20237;-73
2021/10/23 09:26:50;;;;;;;12.88;7.30;;;;;;;12.19;76.76;100525.44;5052031;28;20280;-74
2021/10/23 09:29:19;;;;;;;12.23;8.65;;;;;;;12.20;76.73;100525.38;5051997;28;20714;-74
2021/10/23 09:31:47;;;;;;;21.58;16.17;;;;;;;12.19;76.69;100523.66;5052403;28;20185;-74
2021/10/23 09:34:18;;;;;;;12.07;8.15;;;;;;;12.30;76.00;100526.69;5052290;28;20243;-72
2021/10/23 09:36:50;;;;;;;13.98;8.05;;;;;;;12.14;76.97;100522.97;5052302;28;20196;-72
2021/10/23 09:39:27;;;;;;;18.13;11.43;;;;;;;12.43;77.40;100523.34;5052319;28;20205;-73
2021/10/23 09:42:06;;;;;;;45.63;24.05;;;;;;;12.44;77.28;100520.59;5051933;28;20196;-73
2021/10/23 09:44:33;;;;;;;22.60;14.20;;;;;;;12.92;75.58;100515.41;5052442;28;20228;-74
2021/10/23 09:46:59;;;;;;;13.02;10.13;;;;;;;13.24;73.47;100519.06;5052264;28;20192;-73
2021/10/23 09:49:28;;;;;;;16.75;9.63;;;;;;;13.49;71.49;100524.00;5051761;28;20198;-74
2021/10/23 09:52:03;;;;;;;11.45;8.20;;;;;;;13.60;70.97;100525.25;5052316;28;20467;-72
2021/10/23 09:54:30;;;;;;;18.38;11.63;;;;;;;13.86;70.06;100521.97;5051187;28;20194;-73
2021/10/23 09:56:57;;;;;;;16.05;11.00;;;;;;;13.87;69.27;100521.00;5051165;28;20192;-73
2021/10/23 09:59:28;;;;;;;14.10;9.60;;;;;;;13.94;68.73;100519.66;5051790;28;20198;-73
2021/10/23 10:01:58;;;;;;;13.57;10.35;;;;;;;14.02;68.90;100529.19;5051356;28;20246;-73
2021/10/23 10:04:25;;;;;;;13.50;9.00;;;;;;;14.09;68.38;100530.59;5051550;28;20211;-73
2021/10/23 10:06:53;;;;;;;13.30;10.18;;;;;;;13.92;68.87;100537.84;5051415;28;20205;-72
2021/10/23 10:09:22;;;;;;;12.18;8.55;;;;;;;14.03;68.12;100539.06;5051589;28;20183;-72
2021/10/23 10:11:49;;;;;;;13.43;9.60;;;;;;;14.23;67.73;100540.63;5051521;28;20214;-72
2021/10/23 10:14:17;;;;;;;18.58;9.93;;;;;;;14.25;67.47;100542.28;5051019;28;20187;-73
2021/10/23 10:16:45;;;;;;;15.07;8.70;;;;;;;14.27;68.17;100537.66;5051150;28;20200;-73
2021/10/23 10:19:13;;;;;;;14.30;11.02;;;;;;;14.57;66.60;100540.41;5051772;28;20234;-74
2021/10/23 10:21:41;;;;;;;13.27;9.23;;;;;;;14.63;66.09;100533.75;5051796;28;21084;-74
2021/10/23 10:24:18;;;;;;;12.60;9.15;;;;;;;14.60;65.34;100523.94;5051505;28;20338;-74
2021/10/23 10:27:00;;;;;;;17.20;9.70;;;;;;;14.50;66.30;100533.56;5051154;28;20696;-73
2021/10/23 10:29:38;;;;;;;15.82;11.50;;;;;;;14.46;66.43;100539.28;5050826;28;20333;-74
2021/10/23 10:32:16;;;;;;;16.02;10.50;;;;;;;14.59;66.05;100526.78;5051186;28;20236;-73
2021/10/23 10:35:00;;;;;;;17.40;10.27;;;;;;;14.08;67.33;100523.41;5051139;28;20206;-72
2021/10/23 10:37:51;;;;;;;17.17;11.20;;;;;;;14.15;66.36;100527.50;5051017;28;20208;-71
2021/10/23 10:42:42;;;;;;;17.52;11.32;;;;;;;14.43;65.28;100526.78;5051388;28;20193;-74
2021/10/23 10:44:19;;;;;;;17.38;10.82;;;;;;;14.24;65.81;100521.56;5050832;28;20246;-74
2021/10/23 10:47:11;;;;;;;17.85;11.43;;;;;;;14.36;65.63;100512.72;5051140;28;20220;-74
2021/10/23 10:49:50;;;;;;;15.68;10.82;;;;;;;14.68;65.00;100514.50;5050990;28;20184;-74
2021/10/23 10:52:52;;;;;;;11.93;8.60;;;;;;;14.76;63.87;100513.03;5050870;28;20193;-74
2021/10/23 10:55:20;;;;;;;25.73;15.13;;;;;;;14.80;63.93;100506.47;5051030;28;20202;-73
2021/10/23 10:58:06;;;;;;;14.50;11.13;;;;;;;14.92;63.44;100503.97;5051050;28;20274;-73
2021/10/23 11:01:12;;;;;;;20.45;13.90;;;;;;;15.42;61.64;100508.94;5051176;28;20571;-73
2021/10/23 11:03:43;;;;;;;13.57;10.98;;;;;;;15.66;60.06;100508.31;5050808;28;20201;-73
2021/10/23 11:06:53;;;;;;;17.58;10.60;;;;;;;15.78;59.08;100499.44;5050853;28;20235;-73
2021/10/23 11:09:43;;;;;;;13.57;10.63;;;;;;;15.37;60.39;100500.22;5051055;28;20550;-73
2021/10/23 11:12:20;;;;;;;15.90;10.55;;;;;;;14.78;62.88;100502.13;5048052;28;20204;-72
2021/10/23 11:14:48;;;;;;;16.90;10.45;;;;;;;14.71;63.65;100498.03;5051012;28;20184;-74
2021/10/23 11:17:17;;;;;;;13.30;10.85;;;;;;;14.23;64.95;100498.16;5050888;28;20674;-73
2021/10/23 11:19:46;;;;;;;18.92;16.20;;;;;;;14.66;63.61;100495.59;5050498;28;20196;-73
2021/10/23 11:22:15;;;;;;;12.93;9.55;;;;;;;14.77;62.69;100497.69;5051030;28;20742;-73
2021/10/23 11:24:43;;;;;;;13.40;10.32;;;;;;;15.11;61.53;100496.44;5052787;28;20209;-73
2021/10/23 11:27:23;;;;;;;12.73;10.63;;;;;;;15.36;60.02;100494.91;5054606;28;20295;-74